createdAt,value
2017-05-25T04:46:41.611Z,40
2017-05-25T04:47:07.098Z,40
2017-05-25T04:47:32.600Z,40
2017-05-25T04:47:58.067Z,40
2017-05-25T04:48:23.546Z,40
2017-05-25T04:48:49.012Z,40
2017-05-25T04:49:14.494Z,40
2017-05-25T04:49:39.968Z,40
2017-05-25T04:50:05.438Z,40
2017-05-25T04:50:30.927Z,45
2017-05-25T04:50:56.392Z,45
2017-05-25T04:51:21.855Z,45
2017-05-25T04:51:47.349Z,45
2017-05-25T04:52:12.813Z,45
2017-05-25T04:52:38.279Z,45
2017-05-25T04:53:03.765Z,50
2017-05-25T04:53:29.228Z,50
2017-05-25T04:53:54.698Z,50
2017-05-25T04:54:20.192Z,50
2017-05-25T04:54:45.658Z,50
2017-05-25T04:55:11.152Z,50
2017-05-25T04:55:36.633Z,50
2017-05-25T04:56:02.092Z,50
2017-05-25T04:56:27.593Z,50
2017-05-25T04:56:53.095Z,50
2017-05-25T04:57:18.577Z,55
2017-05-25T04:57:44.069Z,55
2017-05-25T04:58:09.512Z,50
2017-05-25T04:58:35.002Z,50
2017-05-25T04:59:00.464Z,50
2017-05-25T04:59:25.952Z,50
2017-05-25T04:59:51.459Z,45
2017-05-25T05:00:16.925Z,45
2017-05-25T05:00:42.403Z,50
2017-05-25T05:01:07.905Z,50
2017-05-25T05:01:33.376Z,55
2017-05-25T05:01:58.851Z,55
2017-05-25T05:02:24.365Z,55
2017-05-25T05:02:49.837Z,55
2017-05-25T05:03:15.313Z,55
2017-05-25T05:03:40.774Z,60
2017-05-25T05:04:06.263Z,65
2017-05-25T05:04:31.738Z,65
2017-05-25T05:04:57.203Z,65
2017-05-25T05:05:22.684Z,60
2017-05-25T05:05:48.154Z,60
2017-05-25T05:06:13.700Z,60
2017-05-25T05:06:39.130Z,55
2017-05-25T05:07:04.585Z,55
2017-05-25T05:07:30.056Z,55
2017-05-25T05:07:55.541Z,55
2017-05-25T05:08:21.047Z,60
2017-05-25T05:08:46.560Z,60
2017-05-25T05:09:12.005Z,60
2017-05-25T05:09:37.455Z,60
2017-05-25T05:10:02.930Z,60
2017-05-25T05:10:28.427Z,60
2017-05-25T05:10:53.933Z,60
2017-05-25T05:11:19.430Z,65
2017-05-25T05:11:44.909Z,65
2017-05-25T05:12:10.419Z,65
2017-05-25T05:12:35.907Z,60
2017-05-25T05:13:01.425Z,60
2017-05-25T05:13:26.914Z,65
2017-05-25T05:13:52.402Z,65
2017-05-25T05:14:17.857Z,65
2017-05-25T05:14:43.370Z,65
2017-05-25T05:15:08.885Z,60
2017-05-25T05:15:34.332Z,60
2017-05-25T05:15:59.797Z,60
2017-05-25T05:16:25.291Z,65
2017-05-25T05:16:50.767Z,65
2017-05-25T05:17:16.253Z,65
2017-05-25T05:17:41.756Z,65
2017-05-25T05:18:07.263Z,65
2017-05-25T05:18:32.705Z,65
2017-05-25T05:18:58.207Z,65
2017-05-25T05:19:23.703Z,65
2017-05-25T05:19:49.161Z,65
2017-05-25T05:20:14.632Z,65
2017-05-25T05:20:40.093Z,60
2017-05-25T05:21:05.578Z,60
2017-05-25T05:21:31.077Z,55
2017-05-25T05:21:56.520Z,55
2017-05-25T05:22:22.032Z,55
2017-05-25T05:22:47.495Z,60
2017-05-25T05:23:12.953Z,60
2017-05-25T05:23:38.422Z,65
2017-05-25T05:24:03.895Z,65
2017-05-25T05:24:29.355Z,65
2017-05-25T05:24:54.835Z,65
2017-05-25T05:25:20.325Z,65
2017-05-25T05:25:45.792Z,60
2017-05-25T05:26:11.268Z,65
2017-05-25T05:26:36.756Z,65
2017-05-25T05:27:02.273Z,60
2017-05-25T05:27:27.731Z,60
2017-05-25T05:27:53.217Z,65
2017-05-25T05:28:18.711Z,65
2017-05-25T05:28:44.224Z,70
2017-05-25T05:29:09.702Z,70
2017-05-25T05:29:35.197Z,75
2017-05-25T05:30:00.698Z,75
2017-05-25T05:30:26.223Z,75
2017-05-25T05:30:51.703Z,75
2017-05-25T05:31:17.201Z,80
2017-05-25T05:31:42.675Z,85
2017-05-25T05:32:08.137Z,90
2017-05-25T05:32:33.623Z,90
2017-05-25T05:32:59.083Z,90
2017-05-25T05:33:24.591Z,95
2017-05-25T05:33:50.061Z,90
2017-05-25T05:34:15.543Z,90
2017-05-25T05:34:41.010Z,90
2017-05-25T05:35:06.507Z,90
2017-05-25T05:35:31.985Z,90
2017-05-25T05:35:57.513Z,85
2017-05-25T05:36:22.973Z,85
2017-05-25T05:36:48.453Z,85
2017-05-25T05:37:13.923Z,85
2017-05-25T05:37:39.446Z,85
2017-05-25T05:38:04.945Z,85
2017-05-25T05:38:30.402Z,85
2017-05-25T05:38:55.903Z,85
2017-05-25T05:39:21.329Z,85
2017-05-25T05:39:46.835Z,85
2017-05-25T05:40:12.308Z,85
2017-05-25T05:40:37.790Z,90
2017-05-25T05:41:03.294Z,95
2017-05-25T05:41:28.779Z,95
2017-05-25T05:41:54.265Z,90
2017-05-25T05:42:19.796Z,90
2017-05-25T05:42:45.267Z,90
2017-05-25T05:43:10.742Z,90
2017-05-25T05:43:36.282Z,90
2017-05-25T05:44:01.728Z,90
2017-05-25T05:44:27.233Z,90
2017-05-25T05:44:52.703Z,90
2017-05-25T05:45:18.170Z,90
2017-05-25T05:45:43.663Z,90
2017-05-25T05:46:09.137Z,90
2017-05-25T05:46:34.623Z,90
2017-05-25T05:47:00.111Z,95
2017-05-25T05:47:25.604Z,100
2017-05-25T05:47:51.084Z,100
2017-05-25T05:48:16.549Z,105
2017-05-25T05:48:42.042Z,115
2017-05-25T05:49:07.534Z,120
2017-05-25T05:49:33.053Z,130
2017-05-25T05:49:58.555Z,140
2017-05-25T05:50:24.028Z,150
2017-05-25T05:50:49.518Z,155
2017-05-25T05:51:15.002Z,155
2017-05-25T05:51:40.487Z,155
2017-05-25T05:52:05.998Z,155
2017-05-25T05:52:31.481Z,155
2017-05-25T05:52:56.991Z,155
2017-05-25T05:53:22.453Z,145
2017-05-25T05:53:47.976Z,140
2017-05-25T05:54:13.439Z,145
2017-05-25T05:54:38.947Z,150
2017-05-25T05:55:04.406Z,160
2017-05-25T05:55:29.894Z,165
2017-05-25T05:55:55.378Z,170
2017-05-25T05:56:20.846Z,170
2017-05-25T05:56:46.325Z,170
2017-05-25T05:57:11.812Z,170
2017-05-25T05:57:37.288Z,165
2017-05-25T05:58:02.745Z,165
2017-05-25T05:58:28.202Z,165
2017-05-25T05:58:53.702Z,165
2017-05-25T05:59:19.210Z,165
2017-05-25T05:59:44.667Z,165
2017-05-25T06:00:10.163Z,165
2017-05-25T06:00:35.641Z,160
2017-05-25T06:01:01.122Z,155
2017-05-25T06:01:26.599Z,155
2017-05-25T06:01:52.071Z,150
2017-05-25T06:02:17.548Z,150
2017-05-25T06:02:43.042Z,145
2017-05-25T06:03:08.528Z,145
2017-05-25T06:03:34.059Z,145
2017-05-25T06:03:59.513Z,150
2017-05-25T06:04:24.984Z,150
2017-05-25T06:04:50.431Z,155
2017-05-25T06:05:15.921Z,155
2017-05-25T06:05:41.415Z,160
2017-05-25T06:06:06.895Z,165
2017-05-25T06:06:32.399Z,175
2017-05-25T06:06:57.862Z,185
2017-05-25T06:07:23.366Z,200
2017-05-25T06:07:48.820Z,220
2017-05-25T06:08:14.316Z,240
2017-05-25T06:08:39.816Z,250
2017-05-25T06:09:05.321Z,245
2017-05-25T06:09:30.784Z,275
2017-05-25T06:09:56.265Z,275
2017-05-25T06:10:21.821Z,275
2017-05-25T06:10:47.307Z,275
2017-05-25T06:11:12.855Z,270
2017-05-25T06:11:38.359Z,240
2017-05-25T06:12:03.828Z,255
2017-05-25T06:12:29.414Z,255
2017-05-25T06:12:54.886Z,260
2017-05-25T06:13:20.368Z,225
2017-05-25T06:13:45.886Z,215
2017-05-25T06:14:11.344Z,215
2017-05-25T06:14:36.914Z,195
2017-05-25T06:15:45.181Z,200
2017-05-25T06:16:10.682Z,210
2017-05-25T06:16:36.172Z,215
2017-05-25T06:17:01.680Z,225
2017-05-25T06:17:27.155Z,235
2017-05-25T06:17:52.652Z,220
2017-05-25T06:18:18.164Z,200
2017-05-25T06:18:43.628Z,180
2017-05-25T06:19:09.117Z,175
2017-05-25T06:19:34.613Z,170
2017-05-25T06:20:00.089Z,185
2017-05-25T06:20:25.603Z,185
2017-05-25T06:20:51.072Z,145
2017-05-25T06:21:16.571Z,170
2017-05-25T06:21:42.035Z,145
2017-05-25T06:22:07.515Z,145
2017-05-25T06:22:33.009Z,145
2017-05-25T06:22:58.458Z,150
2017-05-25T06:23:23.934Z,155
2017-05-25T06:23:49.489Z,160
2017-05-25T06:24:15.088Z,170
2017-05-25T06:24:40.655Z,175
2017-05-25T06:25:06.619Z,170
2017-05-25T06:25:32.206Z,165
2017-05-25T06:25:57.590Z,160
2017-05-25T06:26:23.068Z,165
2017-05-25T06:26:48.521Z,155
2017-05-25T06:27:13.980Z,155
2017-05-25T06:27:39.481Z,150
2017-05-25T06:28:05.007Z,145
2017-05-25T06:28:30.481Z,140
2017-05-25T06:28:56.013Z,135
2017-05-25T06:29:21.479Z,140
2017-05-25T06:29:47.035Z,125
2017-05-25T06:30:12.553Z,140
2017-05-25T06:30:38.035Z,180
2017-05-25T06:31:03.527Z,145
2017-05-25T06:31:28.962Z,190
2017-05-25T06:31:54.452Z,155
2017-05-25T06:32:19.916Z,155
2017-05-25T06:32:45.385Z,165
2017-05-25T06:33:10.871Z,185
2017-05-25T06:33:36.344Z,215
2017-05-25T06:34:01.826Z,235
2017-05-25T06:34:27.283Z,235
2017-05-25T06:34:52.786Z,265
2017-05-25T06:35:18.280Z,255
2017-05-25T06:35:43.746Z,240
2017-05-25T06:36:09.210Z,220
2017-05-25T06:36:34.672Z,215
2017-05-25T06:37:00.144Z,210
2017-05-25T06:37:25.672Z,220
2017-05-25T06:37:51.157Z,225
2017-05-25T06:38:16.629Z,225
2017-05-25T06:38:42.130Z,230
2017-05-25T06:39:07.644Z,245
2017-05-25T06:39:33.114Z,250
2017-05-25T06:39:58.570Z,260
2017-05-25T06:40:24.050Z,265
2017-05-25T06:40:49.524Z,270
2017-05-25T06:41:14.988Z,270
2017-05-25T06:41:40.511Z,260
2017-05-25T06:42:05.983Z,250
2017-05-25T06:42:31.484Z,250
2017-05-25T06:42:56.984Z,255
2017-05-25T06:43:22.429Z,255
2017-05-25T06:43:47.900Z,240
2017-05-25T06:44:13.370Z,265
2017-05-25T06:44:38.840Z,260
2017-05-25T06:45:04.311Z,270
2017-05-25T06:45:29.777Z,285
2017-05-25T06:45:55.251Z,250
2017-05-25T06:46:20.711Z,240
2017-05-25T06:46:46.194Z,200
2017-05-25T06:47:11.665Z,200
2017-05-25T06:47:37.172Z,265
2017-05-25T06:48:02.790Z,265
2017-05-25T06:48:28.305Z,245
2017-05-25T06:48:53.816Z,210
2017-05-25T06:49:19.282Z,195
2017-05-25T06:49:44.739Z,205
2017-05-25T06:50:10.206Z,275
2017-05-25T06:50:35.670Z,230
2017-05-25T06:51:01.130Z,225
2017-05-25T06:51:26.599Z,290
2017-05-25T06:51:52.066Z,295
2017-05-25T06:52:17.556Z,285
2017-05-25T06:52:43.031Z,255
2017-05-25T06:53:08.565Z,250
2017-05-25T06:53:33.978Z,245
2017-05-25T06:53:59.463Z,245
2017-05-25T06:54:24.932Z,300
2017-05-25T06:54:50.438Z,255
2017-05-25T06:55:15.916Z,240
2017-05-25T06:55:41.401Z,205
2017-05-25T06:56:06.878Z,200
2017-05-25T06:56:32.332Z,180
2017-05-25T06:56:57.814Z,160
2017-05-25T06:57:23.298Z,145
2017-05-25T06:57:48.787Z,130
2017-05-25T06:58:14.263Z,125
2017-05-25T06:58:39.725Z,115
2017-05-25T06:59:05.178Z,115
2017-05-25T06:59:30.676Z,120
2017-05-25T06:59:56.134Z,120
2017-05-25T07:00:21.646Z,120
2017-05-25T07:00:47.116Z,115
2017-05-25T07:01:12.593Z,115
2017-05-25T07:01:38.062Z,130
2017-05-25T07:02:03.552Z,185
2017-05-25T07:02:28.978Z,185
2017-05-25T07:02:54.497Z,185
2017-05-25T07:03:19.971Z,170
2017-05-25T07:03:45.435Z,180
2017-05-25T07:04:10.947Z,185
2017-05-25T07:04:36.438Z,185
2017-05-25T07:05:01.910Z,185
2017-05-25T07:05:27.377Z,185
2017-05-25T07:05:52.836Z,185
2017-05-25T07:06:18.346Z,185
2017-05-25T07:06:43.816Z,185
2017-05-25T07:07:09.280Z,185
2017-05-25T07:07:34.731Z,185
2017-05-25T07:08:00.225Z,190
2017-05-25T07:08:25.691Z,195
2017-05-25T07:08:51.192Z,200
2017-05-25T07:09:16.701Z,200
2017-05-25T07:09:42.254Z,195
2017-05-25T07:10:07.699Z,190
2017-05-25T07:10:33.203Z,190
2017-05-25T07:10:58.674Z,190
2017-05-25T07:11:24.153Z,190
2017-05-25T07:11:49.644Z,195
2017-05-25T07:12:15.166Z,195
2017-05-25T07:12:40.635Z,200
2017-05-25T07:13:06.140Z,205
2017-05-25T07:13:31.667Z,215
2017-05-25T07:13:57.151Z,220
2017-05-25T07:14:22.624Z,220
2017-05-25T07:14:48.095Z,215
2017-05-25T07:15:13.561Z,215
2017-05-25T07:15:39.017Z,220
2017-05-25T07:16:04.503Z,230
2017-05-25T07:16:29.975Z,235
2017-05-25T07:16:55.438Z,245
2017-05-25T07:17:20.936Z,255
2017-05-25T07:17:46.380Z,265
2017-05-25T07:18:11.885Z,250
2017-05-25T07:18:37.380Z,255
2017-05-25T07:19:02.844Z,245
2017-05-25T07:19:28.300Z,245
2017-05-25T07:19:53.790Z,210
2017-05-25T07:20:19.334Z,170
2017-05-25T07:20:44.793Z,180
2017-05-25T07:21:10.314Z,170
2017-05-25T07:21:35.793Z,150
2017-05-25T07:22:01.555Z,150
2017-05-25T07:22:26.905Z,150
2017-05-25T07:22:52.365Z,145
2017-05-25T07:23:17.855Z,135
2017-05-25T07:23:43.343Z,130
2017-05-25T07:24:08.865Z,125
2017-05-25T07:24:34.363Z,130
2017-05-25T07:24:59.870Z,150
2017-05-25T07:25:25.334Z,175
2017-05-25T07:25:50.819Z,130
2017-05-25T07:26:16.284Z,140
2017-05-25T07:26:41.813Z,145
2017-05-25T07:27:07.295Z,210
2017-05-25T07:27:32.771Z,200
2017-05-25T07:27:58.230Z,170
2017-05-25T07:28:23.710Z,190
2017-05-25T07:28:49.180Z,175
2017-05-25T07:29:14.635Z,160
2017-05-25T07:29:40.135Z,185
2017-05-25T07:30:05.605Z,135
2017-05-25T07:30:31.069Z,150
2017-05-25T07:30:56.557Z,175
2017-05-25T07:31:22.067Z,190
2017-05-25T07:31:47.542Z,195
2017-05-25T07:32:13.049Z,190
2017-05-25T07:32:38.495Z,190
2017-05-25T07:33:03.959Z,190
2017-05-25T07:33:29.450Z,190
2017-05-25T07:33:54.913Z,190
2017-05-25T07:34:20.412Z,195
2017-05-25T07:34:45.874Z,195
2017-05-25T07:35:11.347Z,195
2017-05-25T07:35:36.794Z,200
2017-05-25T07:36:02.322Z,200
2017-05-25T07:36:27.800Z,200
2017-05-25T07:36:53.284Z,205
2017-05-25T07:37:18.774Z,215
2017-05-25T07:37:44.269Z,230
2017-05-25T07:38:09.723Z,235
2017-05-25T07:38:35.286Z,240
2017-05-25T07:39:00.764Z,255
2017-05-25T07:39:26.265Z,280
2017-05-25T07:39:51.708Z,295
2017-05-25T07:40:17.190Z,315
2017-05-25T07:40:42.693Z,340
2017-05-25T07:41:08.190Z,380
2017-05-25T07:41:33.688Z,400
2017-05-25T07:41:59.190Z,420
2017-05-25T07:42:24.642Z,395
2017-05-25T07:42:50.149Z,370
2017-05-25T07:43:15.623Z,300
2017-05-25T07:43:41.122Z,315
2017-05-25T07:44:06.600Z,340
2017-05-25T07:44:32.047Z,335
2017-05-25T07:44:57.521Z,330
2017-05-25T07:45:22.998Z,370
2017-05-25T07:45:48.487Z,360
2017-05-25T07:46:13.935Z,270
2017-05-25T07:46:39.448Z,235
2017-05-25T07:47:04.945Z,220
2017-05-25T07:47:30.445Z,215
2017-05-25T07:47:55.956Z,220
2017-05-25T07:48:21.487Z,245
2017-05-25T07:48:46.950Z,290
2017-05-25T07:49:12.431Z,330
2017-05-25T07:49:37.925Z,365
2017-05-25T07:50:03.397Z,435
2017-05-25T07:50:28.891Z,400
2017-05-25T07:50:54.377Z,385
2017-05-25T07:51:19.853Z,315
2017-05-25T07:51:45.337Z,325
2017-05-25T07:52:10.808Z,325
2017-05-25T07:52:36.338Z,330
2017-05-25T07:53:01.817Z,335
2017-05-25T07:53:27.324Z,315
2017-05-25T07:53:52.807Z,305
2017-05-25T07:54:18.279Z,290
2017-05-25T07:54:43.794Z,260
2017-05-25T07:55:09.218Z,220
2017-05-25T07:55:34.706Z,190
2017-05-25T07:56:00.184Z,190
2017-05-25T07:56:25.644Z,190
2017-05-25T07:56:51.178Z,180
2017-05-25T07:57:16.628Z,175
2017-05-25T07:57:42.119Z,180
2017-05-25T07:58:07.604Z,190
2017-05-25T07:58:33.115Z,200
2017-05-25T07:58:58.610Z,215
2017-05-25T07:59:24.070Z,230
2017-05-25T07:59:49.540Z,240
2017-05-25T08:00:15.048Z,245
2017-05-25T08:00:40.507Z,255
2017-05-25T08:01:05.960Z,265
2017-05-25T08:01:31.448Z,275
2017-05-25T08:01:56.926Z,280
2017-05-25T08:02:22.413Z,280
2017-05-25T08:02:47.866Z,275
2017-05-25T08:03:13.356Z,255
2017-05-25T08:03:38.841Z,235
2017-05-25T08:04:04.313Z,225
2017-05-25T08:04:29.765Z,225
2017-05-25T08:04:55.251Z,225
2017-05-25T08:05:20.711Z,235
2017-05-25T08:05:46.203Z,240
2017-05-25T08:06:11.687Z,250
2017-05-25T08:06:37.162Z,255
2017-05-25T08:07:02.647Z,260
2017-05-25T08:07:28.127Z,260
2017-05-25T08:07:53.606Z,255
2017-05-25T08:08:19.064Z,275
2017-05-25T08:08:44.613Z,350
2017-05-25T08:09:10.037Z,405
2017-05-25T08:09:35.593Z,390
2017-05-25T08:10:00.997Z,330
2017-05-25T08:10:26.512Z,315
2017-05-25T08:10:52.036Z,310
2017-05-25T08:11:17.485Z,305
2017-05-25T08:11:43.047Z,320
2017-05-25T08:12:08.497Z,325
2017-05-25T08:12:33.982Z,330
2017-05-25T08:12:59.444Z,335
2017-05-25T08:13:24.958Z,315
2017-05-25T08:13:50.409Z,295
2017-05-25T08:14:15.877Z,315
2017-05-25T08:14:41.380Z,325
2017-05-25T08:15:06.887Z,310
2017-05-25T08:15:32.380Z,310
2017-05-25T08:15:57.840Z,320
2017-05-25T08:16:23.333Z,265
2017-05-25T08:16:48.804Z,245
2017-05-25T08:17:14.275Z,215
2017-05-25T08:17:39.753Z,200
2017-05-25T08:18:05.228Z,205
2017-05-25T08:18:30.702Z,205
2017-05-25T08:18:56.181Z,220
2017-05-25T08:19:21.668Z,245
2017-05-25T08:19:47.137Z,235
2017-05-25T08:20:12.632Z,230
2017-05-25T08:20:38.113Z,230
2017-05-25T08:21:03.644Z,230
2017-05-25T08:21:29.109Z,235
2017-05-25T08:21:54.605Z,245
2017-05-25T08:22:20.079Z,255
2017-05-25T08:22:45.556Z,275
2017-05-25T08:23:11.043Z,305
2017-05-25T08:23:36.526Z,320
2017-05-25T08:24:02.024Z,325
2017-05-25T08:24:27.476Z,340
2017-05-25T08:24:53.002Z,345
2017-05-25T08:25:18.482Z,335
2017-05-25T08:25:43.967Z,325
2017-05-25T08:26:09.448Z,345
2017-05-25T08:26:34.906Z,315
2017-05-25T08:27:00.382Z,340
2017-05-25T08:27:25.861Z,350
2017-05-25T08:27:51.379Z,370
2017-05-25T08:28:16.855Z,350
2017-05-25T08:28:42.336Z,410
2017-05-25T08:29:07.801Z,390
2017-05-25T08:29:33.309Z,400
2017-05-25T08:29:58.832Z,325
2017-05-25T08:30:24.297Z,360
2017-05-25T08:30:49.782Z,285
2017-05-25T08:31:15.242Z,245
2017-05-25T08:31:40.721Z,225
2017-05-25T08:32:06.182Z,205
2017-05-25T08:32:31.674Z,185
2017-05-25T08:32:57.157Z,165
2017-05-25T08:33:22.657Z,170
2017-05-25T08:33:48.156Z,185
2017-05-25T08:34:13.647Z,180
2017-05-25T08:34:39.105Z,175
2017-05-25T08:35:04.650Z,180
2017-05-25T08:35:30.120Z,195
2017-05-25T08:35:55.606Z,185
2017-05-25T08:36:21.089Z,205
2017-05-25T08:36:46.597Z,225
2017-05-25T08:37:12.067Z,255
2017-05-25T08:37:37.557Z,265
2017-05-25T08:38:03.068Z,270
2017-05-25T08:38:28.555Z,260
2017-05-25T08:38:54.049Z,245
2017-05-25T08:39:19.555Z,245
2017-05-25T08:39:44.994Z,240
2017-05-25T08:40:10.582Z,265
2017-05-25T08:40:36.009Z,225
2017-05-25T08:41:01.458Z,295
2017-05-25T08:41:26.933Z,310
2017-05-25T08:41:52.393Z,315
2017-05-25T08:42:17.862Z,300
2017-05-25T08:42:43.346Z,285
2017-05-25T08:43:08.848Z,250
2017-05-25T08:43:34.323Z,215
2017-05-25T08:43:59.841Z,160
2017-05-25T08:44:25.313Z,140
2017-05-25T08:44:50.848Z,135
2017-05-25T08:45:16.314Z,180
2017-05-25T08:45:41.771Z,185
2017-05-25T08:46:07.274Z,185
2017-05-25T08:46:32.742Z,185
2017-05-25T08:46:58.273Z,190
2017-05-25T08:47:23.710Z,200
2017-05-25T08:47:49.166Z,200
2017-05-25T08:48:14.661Z,210
2017-05-25T08:48:40.144Z,215
2017-05-25T08:49:05.628Z,235
2017-05-25T08:49:31.156Z,250
2017-05-25T08:49:56.637Z,250
2017-05-25T08:50:22.118Z,270
2017-05-25T08:50:47.577Z,290
2017-05-25T08:51:13.053Z,310
2017-05-25T08:51:38.503Z,300
2017-05-25T08:52:03.969Z,215
2017-05-25T08:52:29.475Z,180
2017-05-25T08:52:54.941Z,185
2017-05-25T08:53:20.436Z,190
2017-05-25T08:53:45.894Z,180
2017-05-25T08:54:11.333Z,180
2017-05-25T08:54:36.838Z,190
2017-05-25T08:55:02.307Z,195
2017-05-25T08:55:27.806Z,210
2017-05-25T08:55:53.310Z,225
2017-05-25T08:56:18.803Z,240
2017-05-25T08:56:44.304Z,240
2017-05-25T08:57:09.801Z,230
2017-05-25T08:57:35.296Z,210
2017-05-25T08:58:00.773Z,200
2017-05-25T08:58:26.233Z,140
2017-05-25T08:58:51.725Z,150
2017-05-25T08:59:17.262Z,205
2017-05-25T08:59:42.746Z,210
2017-05-25T09:00:08.256Z,210
2017-05-25T09:00:33.763Z,215
2017-05-25T09:00:59.235Z,220
2017-05-25T09:01:24.733Z,235
2017-05-25T09:01:50.191Z,245
2017-05-25T09:02:15.745Z,245
2017-05-25T09:02:41.283Z,275
2017-05-25T09:03:06.749Z,285
2017-05-25T09:03:32.334Z,305
2017-05-25T09:03:57.822Z,325
2017-05-25T09:04:23.304Z,320
2017-05-25T09:04:48.794Z,295
2017-05-25T09:05:14.290Z,270
2017-05-25T09:05:39.800Z,265
2017-05-25T09:06:05.326Z,275
2017-05-25T09:06:30.791Z,290
2017-05-25T09:06:56.304Z,275
2017-05-25T09:07:21.781Z,250
2017-05-25T09:07:47.329Z,230
2017-05-25T09:08:12.817Z,225
2017-05-25T09:08:38.299Z,230
2017-05-25T09:09:03.802Z,235
2017-05-25T09:09:29.311Z,230
2017-05-25T09:09:54.838Z,235
2017-05-25T09:10:20.328Z,240
2017-05-25T09:10:45.795Z,245
2017-05-25T09:11:11.263Z,235
2017-05-25T09:11:36.752Z,225
2017-05-25T09:12:02.269Z,265
2017-05-25T09:12:27.769Z,270
2017-05-25T09:12:53.270Z,285
2017-05-25T09:13:18.768Z,300
2017-05-25T09:13:44.281Z,325
2017-05-25T09:14:09.779Z,345
2017-05-25T09:14:35.252Z,330
2017-05-25T09:15:00.735Z,320
2017-05-25T09:15:26.209Z,330
2017-05-25T09:15:51.693Z,305
2017-05-25T09:16:17.183Z,280
2017-05-25T09:16:42.703Z,280
2017-05-25T09:17:08.176Z,260
2017-05-25T09:17:33.653Z,260
2017-05-25T09:17:59.111Z,245
2017-05-25T09:18:24.640Z,300
2017-05-25T09:18:50.097Z,305
2017-05-25T09:19:15.637Z,300
2017-05-25T09:19:41.186Z,280
2017-05-25T09:20:06.762Z,245
2017-05-25T09:20:32.281Z,240
2017-05-25T09:20:57.772Z,225
2017-05-25T09:21:23.257Z,250
2017-05-25T09:21:48.721Z,240
2017-05-25T09:22:14.195Z,210
2017-05-25T09:22:39.674Z,175
2017-05-25T09:23:05.161Z,170
2017-05-25T09:23:30.693Z,180
2017-05-25T09:23:56.163Z,190
2017-05-25T09:24:21.633Z,195
2017-05-25T09:24:47.171Z,190
2017-05-25T09:25:12.657Z,180
2017-05-25T09:25:38.133Z,170
2017-05-25T09:26:03.646Z,165
2017-05-25T09:26:29.155Z,160
2017-05-25T09:26:54.643Z,165
2017-05-25T09:27:20.132Z,165
2017-05-25T09:27:45.598Z,165
2017-05-25T09:28:11.084Z,170
2017-05-25T09:28:36.571Z,170
2017-05-25T09:29:02.072Z,170
2017-05-25T09:29:27.552Z,165
2017-05-25T09:29:53.039Z,145
2017-05-25T09:30:18.524Z,170
2017-05-25T09:30:44.022Z,165
2017-05-25T09:31:09.513Z,160
2017-05-25T09:31:35.017Z,120
2017-05-25T09:32:00.598Z,120
2017-05-25T09:32:26.041Z,155
2017-05-25T09:32:51.513Z,150
2017-05-25T09:33:17.023Z,140
2017-05-25T09:33:42.507Z,145
2017-05-25T09:34:08.002Z,115
2017-05-25T09:34:33.486Z,120
2017-05-25T09:34:58.964Z,115
2017-05-25T09:35:24.458Z,115
2017-05-25T09:35:49.925Z,115
2017-05-25T09:36:15.435Z,145
2017-05-25T09:36:40.883Z,150
2017-05-25T09:37:06.389Z,155
2017-05-25T09:37:31.856Z,150
2017-05-25T09:37:57.363Z,150
2017-05-25T09:38:22.874Z,150
2017-05-25T09:38:48.361Z,150
2017-05-25T09:39:13.887Z,145
2017-05-25T09:39:39.360Z,150
2017-05-25T09:40:04.824Z,155
2017-05-25T09:40:30.284Z,150
2017-05-25T09:40:55.754Z,150
2017-05-25T09:41:21.252Z,155
2017-05-25T09:41:46.741Z,150
2017-05-25T09:42:12.228Z,150
2017-05-25T09:42:37.753Z,150
2017-05-25T09:43:03.247Z,150
2017-05-25T09:43:28.713Z,150
2017-05-25T09:43:54.190Z,150
2017-05-25T09:44:19.660Z,150
2017-05-25T09:44:45.141Z,150
2017-05-25T09:45:10.639Z,150
2017-05-25T09:45:36.148Z,150
2017-05-25T09:46:01.630Z,150
2017-05-25T09:46:27.084Z,150
2017-05-25T09:46:52.542Z,145
2017-05-25T09:47:18.024Z,145
2017-05-25T09:47:43.513Z,145
2017-05-25T09:48:08.984Z,145
2017-05-25T09:48:34.459Z,145
2017-05-25T09:48:59.928Z,145
2017-05-25T09:49:25.397Z,145
2017-05-25T09:49:50.913Z,140
2017-05-25T09:50:16.361Z,140
2017-05-25T09:50:41.872Z,140
2017-05-25T09:51:07.317Z,140
2017-05-25T09:51:32.824Z,135
2017-05-25T09:51:58.298Z,135
2017-05-25T09:52:23.822Z,140
2017-05-25T09:52:49.310Z,140
2017-05-25T09:53:14.819Z,135
2017-05-25T09:53:40.329Z,140
2017-05-25T09:54:05.799Z,140
2017-05-25T09:54:31.301Z,140
2017-05-25T09:54:56.880Z,140
2017-05-25T09:55:22.353Z,145
2017-05-25T09:55:47.836Z,145
2017-05-25T09:56:13.362Z,150
2017-05-25T09:56:38.882Z,150
2017-05-25T09:57:04.331Z,145
2017-05-25T09:57:29.843Z,145
2017-05-25T09:57:55.310Z,145
2017-05-25T09:58:20.821Z,140
2017-05-25T09:58:46.297Z,140
2017-05-25T09:59:11.765Z,140
2017-05-25T09:59:37.243Z,140
2017-05-25T10:00:02.769Z,140
2017-05-25T10:00:28.263Z,140
2017-05-25T10:00:53.757Z,140
2017-05-25T10:01:19.226Z,135
2017-05-25T10:01:44.722Z,135
2017-05-25T10:02:10.169Z,135
2017-05-25T10:02:35.659Z,135
2017-05-25T10:03:01.162Z,135
2017-05-25T10:03:26.661Z,135
2017-05-25T10:03:52.129Z,135
2017-05-25T10:04:17.628Z,130
2017-05-25T10:04:43.115Z,130
2017-05-25T10:05:08.593Z,130
2017-05-25T10:05:34.097Z,130
2017-05-25T10:05:59.603Z,130
2017-05-25T10:06:25.103Z,130
2017-05-25T10:06:50.777Z,130
2017-05-25T10:07:16.327Z,125
2017-05-25T10:07:41.838Z,125
2017-05-25T10:08:07.394Z,125
2017-05-25T10:08:32.885Z,125
2017-05-25T10:08:58.362Z,125
2017-05-25T10:09:23.869Z,125
2017-05-25T10:09:49.363Z,125
2017-05-25T10:10:14.831Z,125
2017-05-25T10:10:40.296Z,125
2017-05-25T10:11:05.779Z,125
2017-05-25T10:11:31.257Z,125
2017-05-25T10:11:56.724Z,120
2017-05-25T10:12:22.240Z,120
2017-05-25T10:12:47.701Z,120
2017-05-25T10:13:13.192Z,125
2017-05-25T10:13:38.685Z,125
2017-05-25T10:14:04.166Z,125
2017-05-25T10:14:29.651Z,125
2017-05-25T10:14:55.135Z,130
2017-05-25T10:15:20.594Z,130
2017-05-25T10:15:46.074Z,130
2017-05-25T10:16:11.550Z,130
2017-05-25T10:16:37.031Z,130
2017-05-25T10:17:02.516Z,130
2017-05-25T10:17:27.978Z,130
2017-05-25T10:17:53.446Z,130
2017-05-25T10:18:18.915Z,130
2017-05-25T10:18:44.382Z,130
2017-05-25T10:19:09.849Z,135
2017-05-25T10:19:35.340Z,135
2017-05-25T10:20:00.824Z,135
2017-05-25T10:20:26.335Z,145
2017-05-25T10:20:51.831Z,150
2017-05-25T10:21:17.364Z,160
2017-05-25T10:21:42.821Z,170
2017-05-25T10:22:08.276Z,180
2017-05-25T10:22:33.783Z,180
2017-05-25T10:22:59.245Z,165
2017-05-25T10:23:24.777Z,155
2017-05-25T10:23:50.247Z,150
2017-05-25T10:24:15.732Z,145
2017-05-25T10:24:41.197Z,130
2017-05-25T10:25:06.721Z,125
2017-05-25T10:25:32.185Z,125
2017-05-25T10:25:57.687Z,120
2017-05-25T10:26:23.192Z,115
2017-05-25T10:26:48.657Z,105
2017-05-25T10:27:14.213Z,120
2017-05-25T10:27:39.800Z,120
2017-05-25T10:28:05.353Z,120
2017-05-25T10:28:30.832Z,115
2017-05-25T10:28:56.317Z,120
2017-05-25T10:29:21.792Z,115
2017-05-25T10:29:47.274Z,115
2017-05-25T10:30:12.780Z,115
2017-05-25T10:30:38.282Z,115
2017-05-25T10:31:03.738Z,115
2017-05-25T10:31:29.237Z,115
2017-05-25T10:31:54.679Z,115
2017-05-25T10:32:20.163Z,115
2017-05-25T10:32:45.649Z,115
2017-05-25T10:33:11.157Z,120
2017-05-25T10:33:36.680Z,120
2017-05-25T10:34:02.152Z,120
2017-05-25T10:34:27.619Z,120
2017-05-25T10:34:53.088Z,120
2017-05-25T10:35:18.568Z,125
2017-05-25T10:35:44.051Z,125
2017-05-25T10:36:09.519Z,125
2017-05-25T10:36:35.003Z,130
2017-05-25T10:37:00.488Z,130
2017-05-25T10:37:25.933Z,130
2017-05-25T10:37:51.427Z,125
2017-05-25T10:38:16.898Z,120
2017-05-25T10:38:42.377Z,120
2017-05-25T10:39:07.905Z,125
2017-05-25T10:39:33.379Z,135
2017-05-25T10:39:58.897Z,155